CBL8 weather

Bala Airport
Bala, Ontario, Canada

Public forecast

Using degrees Celsius for public forecast. Weather courtesy of forecast.io.

METAR (pilot weather report)

Closest report is Muskoka Airport, 13.8 nm (25.5 km) ESE. Retrieved 2019/05/25 22:40 UTC (8 minutes ago):

CYQA 252240Z AUTO 16005KT 3SM BR OVC011 17/16 A2979 RMK SLP091 DENSITY ALT 1400FT

TAF (pilot weather forecast)

Closest forecast is Muskoka Airport, 13.8 nm (25.5 km) ESE. Retrieved 2019/05/25 20:00 UTC (3 hours ago):

TAF CYQA 251939Z 2520/2602 17010G20KT P6SM FEW005 SCT010 OVC050 TEMPO 2520/2523 5SM -SHRA BR BKN005 OVC010 FM252300 22005KT P6SM SCT030 TEMPO 2600/2602 2SM BR BKN005 RMK FCST BASED ON AUTO OBS. NXT FCST WILL BE ISSUED AT 261145Z